sensor_id;sensor_type;location;lat;lon;timestamp;P1;durP1;ratioP1;P2;durP2;ratioP2
64395;SDS011;50717;53.360;6.290;2023-04-15T00:02:04;12.00;;;6.75;;
64395;SDS011;50717;53.360;6.290;2023-04-15T00:04:38;12.60;;;6.68;;
64395;SDS011;50717;53.360;6.290;2023-04-15T00:07:04;14.68;;;7.45;;
64395;SDS011;50717;53.360;6.290;2023-04-15T00:09:29;12.48;;;6.47;;
64395;SDS011;50717;53.360;6.290;2023-04-15T00:11:55;19.13;;;7.10;;
64395;SDS011;50717;53.360;6.290;2023-04-15T00:14:21;11.77;;;6.53;;
64395;SDS011;50717;53.360;6.290;2023-04-15T00:16:47;14.60;;;7.03;;
64395;SDS011;50717;53.360;6.290;2023-04-15T00:19:19;13.73;;;7.88;;
64395;SDS011;50717;53.360;6.290;2023-04-15T00:21:45;16.80;;;8.30;;
64395;SDS011;50717;53.360;6.290;2023-04-15T00:26:37;13.32;;;7.43;;
64395;SDS011;50717;53.360;6.290;2023-04-15T00:29:03;12.95;;;8.38;;
64395;SDS011;50717;53.360;6.290;2023-04-15T00:31:29;15.90;;;8.07;;
64395;SDS011;50717;53.360;6.290;2023-04-15T00:33:56;16.75;;;9.23;;
64395;SDS011;50717;53.360;6.290;2023-04-15T00:38:48;15.30;;;9.32;;
64395;SDS011;50717;53.360;6.290;2023-04-15T00:41:14;16.05;;;9.70;;
64395;SDS011;50717;53.360;6.290;2023-04-15T00:43:39;20.60;;;9.25;;
64395;SDS011;50717;53.360;6.290;2023-04-15T00:46:06;15.50;;;9.95;;
64395;SDS011;50717;53.360;6.290;2023-04-15T00:48:33;17.95;;;10.73;;
64395;SDS011;50717;53.360;6.290;2023-04-15T00:53:25;19.63;;;9.98;;
64395;SDS011;50717;53.360;6.290;2023-04-15T00:55:51;17.55;;;10.27;;
64395;SDS011;50717;53.360;6.290;2023-04-15T00:58:18;15.25;;;10.43;;
64395;SDS011;50717;53.360;6.290;2023-04-15T01:00:43;20.98;;;11.23;;
64395;SDS011;50717;53.360;6.290;2023-04-15T01:03:10;24.52;;;10.80;;
64395;SDS011;50717;53.360;6.290;2023-04-15T01:05:36;17.48;;;10.85;;
64395;SDS011;50717;53.360;6.290;2023-04-15T01:08:03;19.10;;;11.85;;
64395;SDS011;50717;53.360;6.290;2023-04-15T01:12:55;19.33;;;11.07;;
64395;SDS011;50717;53.360;6.290;2023-04-15T01:15:22;23.08;;;11.50;;
64395;SDS011;50717;53.360;6.290;2023-04-15T01:17:49;23.42;;;12.57;;
64395;SDS011;50717;53.360;6.290;2023-04-15T01:20:14;19.17;;;11.73;;
64395;SDS011;50717;53.360;6.290;2023-04-15T01:22:40;20.95;;;12.15;;
64395;SDS011;50717;53.360;6.290;2023-04-15T01:25:10;20.73;;;12.93;;
64395;SDS011;50717;53.360;6.290;2023-04-15T01:27:39;21.40;;;12.77;;
64395;SDS011;50717;53.360;6.290;2023-04-15T01:30:06;21.88;;;12.68;;
64395;SDS011;50717;53.360;6.290;2023-04-15T01:32:33;22.77;;;13.10;;
64395;SDS011;50717;53.360;6.290;2023-04-15T01:34:58;26.00;;;13.98;;
64395;SDS011;50717;53.360;6.290;2023-04-15T01:37:24;25.05;;;13.10;;
64395;SDS011;50717;53.360;6.290;2023-04-15T01:39:50;24.13;;;13.25;;
64395;SDS011;50717;53.360;6.290;2023-04-15T01:42:16;23.58;;;13.70;;
64395;SDS011;50717;53.360;6.290;2023-04-15T01:44:42;22.35;;;13.10;;
64395;SDS011;50717;53.360;6.290;2023-04-15T01:47:08;21.23;;;13.63;;
64395;SDS011;50717;53.360;6.290;2023-04-15T01:49:33;21.08;;;13.50;;
64395;SDS011;50717;53.360;6.290;2023-04-15T01:54:25;19.65;;;12.63;;
64395;SDS011;50717;53.360;6.290;2023-04-15T01:56:51;19.13;;;12.75;;
64395;SDS011;50717;53.360;6.290;2023-04-15T01:59:17;21.98;;;12.55;;
64395;SDS011;50717;53.360;6.290;2023-04-15T02:01:43;21.63;;;12.50;;
64395;SDS011;50717;53.360;6.290;2023-04-15T02:04:12;20.60;;;13.02;;
64395;SDS011;50717;53.360;6.290;2023-04-15T02:06:43;20.17;;;13.02;;
64395;SDS011;50717;53.360;6.290;2023-04-15T02:09:10;18.67;;;12.27;;
64395;SDS011;50717;53.360;6.290;2023-04-15T02:11:35;21.65;;;12.63;;
64395;SDS011;50717;53.360;6.290;2023-04-15T02:14:02;19.75;;;12.15;;
64395;SDS011;50717;53.360;6.290;2023-04-15T02:16:31;21.13;;;12.75;;
64395;SDS011;50717;53.360;6.290;2023-04-15T02:21:25;20.85;;;13.05;;
64395;SDS011;50717;53.360;6.290;2023-04-15T02:23:51;19.98;;;13.43;;
64395;SDS011;50717;53.360;6.290;2023-04-15T02:26:18;19.90;;;12.88;;
64395;SDS011;50717;53.360;6.290;2023-04-15T02:28:44;20.52;;;12.70;;
64395;SDS011;50717;53.360;6.290;2023-04-15T02:31:11;21.52;;;12.95;;
64395;SDS011;50717;53.360;6.290;2023-04-15T02:33:37;23.25;;;14.18;;
64395;SDS011;50717;53.360;6.290;2023-04-15T02:36:03;22.42;;;13.10;;
64395;SDS011;50717;53.360;6.290;2023-04-15T02:38:29;18.77;;;12.88;;
64395;SDS011;50717;53.360;6.290;2023-04-15T02:40:55;20.45;;;13.20;;
64395;SDS011;50717;53.360;6.290;2023-04-15T02:43:21;21.83;;;13.30;;
64395;SDS011;50717;53.360;6.290;2023-04-15T02:45:47;23.02;;;12.93;;
64395;SDS011;50717;53.360;6.290;2023-04-15T02:48:13;22.35;;;13.98;;
64395;SDS011;50717;53.360;6.290;2023-04-15T02:50:40;26.23;;;13.95;;
64395;SDS011;50717;53.360;6.290;2023-04-15T02:53:06;20.38;;;13.30;;
64395;SDS011;50717;53.360;6.290;2023-04-15T02:55:32;22.73;;;14.13;;
64395;SDS011;50717;53.360;6.290;2023-04-15T02:57:57;23.88;;;14.35;;
64395;SDS011;50717;53.360;6.290;2023-04-15T03:00:24;24.27;;;14.73;;
64395;SDS011;50717;53.360;6.290;2023-04-15T03:02:56;22.83;;;15.15;;
64395;SDS011;50717;53.360;6.290;2023-04-15T03:05:23;26.52;;;15.85;;
64395;SDS011;50717;53.360;6.290;2023-04-15T03:07:49;24.23;;;16.15;;
64395;SDS011;50717;53.360;6.290;2023-04-15T03:10:16;26.88;;;15.93;;
64395;SDS011;50717;53.360;6.290;2023-04-15T03:12:41;25.67;;;15.57;;
64395;SDS011;50717;53.360;6.290;2023-04-15T03:15:07;26.85;;;16.48;;
64395;SDS011;50717;53.360;6.290;2023-04-15T03:17:34;24.13;;;16.67;;
64395;SDS011;50717;53.360;6.290;2023-04-15T03:20:00;26.40;;;16.92;;
64395;SDS011;50717;53.360;6.290;2023-04-15T03:22:29;28.73;;;17.35;;
64395;SDS011;50717;53.360;6.290;2023-04-15T03:24:55;26.10;;;17.17;;
64395;SDS011;50717;53.360;6.290;2023-04-15T03:27:21;29.67;;;18.10;;
64395;SDS011;50717;53.360;6.290;2023-04-15T03:29:46;31.27;;;18.90;;
64395;SDS011;50717;53.360;6.290;2023-04-15T03:32:12;27.83;;;17.83;;
64395;SDS011;50717;53.360;6.290;2023-04-15T03:34:39;29.33;;;17.58;;
64395;SDS011;50717;53.360;6.290;2023-04-15T03:37:08;29.48;;;17.70;;
64395;SDS011;50717;53.360;6.290;2023-04-15T03:39:34;26.13;;;17.48;;
64395;SDS011;50717;53.360;6.290;2023-04-15T03:44:26;28.40;;;16.63;;
64395;SDS011;50717;53.360;6.290;2023-04-15T03:46:52;29.08;;;17.55;;
64395;SDS011;50717;53.360;6.290;2023-04-15T03:49:18;27.65;;;16.58;;
64395;SDS011;50717;53.360;6.290;2023-04-15T03:51:44;30.90;;;18.60;;
64395;SDS011;50717;53.360;6.290;2023-04-15T03:54:10;27.98;;;17.90;;
64395;SDS011;50717;53.360;6.290;2023-04-15T03:56:36;29.92;;;18.63;;
64395;SDS011;50717;53.360;6.290;2023-04-15T03:59:02;30.42;;;18.75;;
64395;SDS011;50717;53.360;6.290;2023-04-15T04:01:28;32.88;;;18.70;;
64395;SDS011;50717;53.360;6.290;2023-04-15T04:03:54;33.40;;;19.30;;
64395;SDS011;50717;53.360;6.290;2023-04-15T04:06:20;32.60;;;19.45;;
64395;SDS011;50717;53.360;6.290;2023-04-15T04:08:45;30.67;;;18.05;;
64395;SDS011;50717;53.360;6.290;2023-04-15T04:11:11;31.52;;;19.33;;
64395;SDS011;50717;53.360;6.290;2023-04-15T04:13:37;29.40;;;17.75;;
64395;SDS011;50717;53.360;6.290;2023-04-15T04:16:02;26.98;;;17.20;;
64395;SDS011;50717;53.360;6.290;2023-04-15T04:18:29;29.23;;;17.20;;
64395;SDS011;50717;53.360;6.290;2023-04-15T04:20:56;27.88;;;16.48;;
64395;SDS011;50717;53.360;6.290;2023-04-15T04:23:21;27.67;;;15.48;;
64395;SDS011;50717;53.360;6.290;2023-04-15T04:25:47;25.80;;;15.93;;
64395;SDS011;50717;53.360;6.290;2023-04-15T04:28:13;22.63;;;14.23;;
64395;SDS011;50717;53.360;6.290;2023-04-15T04:30:38;22.05;;;14.23;;
64395;SDS011;50717;53.360;6.290;2023-04-15T04:33:05;18.88;;;12.68;;
64395;SDS011;50717;53.360;6.290;2023-04-15T04:35:31;19.92;;;12.45;;
64395;SDS011;50717;53.360;6.290;2023-04-15T04:37:59;18.85;;;12.70;;
64395;SDS011;50717;53.360;6.290;2023-04-15T04:42:51;19.00;;;12.45;;
64395;SDS011;50717;53.360;6.290;2023-04-15T04:47:43;21.67;;;12.07;;
64395;SDS011;50717;53.360;6.290;2023-04-15T04:50:10;21.13;;;12.65;;
64395;SDS011;50717;53.360;6.290;2023-04-15T04:52:36;18.40;;;11.23;;
64395;SDS011;50717;53.360;6.290;2023-04-15T04:55:02;19.27;;;10.43;;
64395;SDS011;50717;53.360;6.290;2023-04-15T04:57:28;18.70;;;11.73;;
64395;SDS011;50717;53.360;6.290;2023-04-15T04:59:54;17.60;;;11.88;;
64395;SDS011;50717;53.360;6.290;2023-04-15T05:02:20;18.73;;;11.48;;
64395;SDS011;50717;53.360;6.290;2023-04-15T05:04:45;19.77;;;12.05;;
64395;SDS011;50717;53.360;6.290;2023-04-15T05:07:11;19.35;;;11.95;;
64395;SDS011;50717;53.360;6.290;2023-04-15T05:09:37;21.30;;;12.50;;
64395;SDS011;50717;53.360;6.290;2023-04-15T05:12:03;23.10;;;12.60;;
64395;SDS011;50717;53.360;6.290;2023-04-15T05:14:29;20.52;;;12.50;;
64395;SDS011;50717;53.360;6.290;2023-04-15T05:16:56;20.88;;;13.50;;
64395;SDS011;50717;53.360;6.290;2023-04-15T05:19:22;22.13;;;13.75;;
64395;SDS011;50717;53.360;6.290;2023-04-15T05:21:47;24.30;;;14.32;;
64395;SDS011;50717;53.360;6.290;2023-04-15T05:24:13;27.98;;;14.88;;
64395;SDS011;50717;53.360;6.290;2023-04-15T05:26:39;25.70;;;15.05;;
64395;SDS011;50717;53.360;6.290;2023-04-15T05:29:05;30.58;;;16.48;;
64395;SDS011;50717;53.360;6.290;2023-04-15T05:31:31;31.77;;;16.58;;
64395;SDS011;50717;53.360;6.290;2023-04-15T05:33:56;30.52;;;16.60;;
64395;SDS011;50717;53.360;6.290;2023-04-15T05:36:22;29.98;;;16.27;;
64395;SDS011;50717;53.360;6.290;2023-04-15T05:38:48;29.83;;;17.35;;
64395;SDS011;50717;53.360;6.290;2023-04-15T05:41:13;31.92;;;17.88;;
64395;SDS011;50717;53.360;6.290;2023-04-15T05:43:42;30.35;;;16.77;;
64395;SDS011;50717;53.360;6.290;2023-04-15T05:46:08;31.25;;;17.27;;
64395;SDS011;50717;53.360;6.290;2023-04-15T05:48:33;30.35;;;16.85;;
64395;SDS011;50717;53.360;6.290;2023-04-15T05:50:59;30.95;;;17.33;;
64395;SDS011;50717;53.360;6.290;2023-04-15T05:53:25;32.28;;;16.63;;
64395;SDS011;50717;53.360;6.290;2023-04-15T05:55:51;28.77;;;16.45;;
64395;SDS011;50717;53.360;6.290;2023-04-15T05:58:17;33.97;;;17.60;;
64395;SDS011;50717;53.360;6.290;2023-04-15T06:00:42;35.97;;;18.40;;
64395;SDS011;50717;53.360;6.290;2023-04-15T06:03:09;33.28;;;17.98;;
64395;SDS011;50717;53.360;6.290;2023-04-15T06:05:35;32.45;;;16.90;;
64395;SDS011;50717;53.360;6.290;2023-04-15T06:08:01;32.28;;;18.50;;
64395;SDS011;50717;53.360;6.290;2023-04-15T06:10:27;31.33;;;18.52;;
64395;SDS011;50717;53.360;6.290;2023-04-15T06:12:52;31.63;;;17.83;;
64395;SDS011;50717;53.360;6.290;2023-04-15T06:15:18;33.05;;;18.83;;
64395;SDS011;50717;53.360;6.290;2023-04-15T06:17:44;28.13;;;16.63;;
64395;SDS011;50717;53.360;6.290;2023-04-15T06:20:10;28.38;;;16.33;;
64395;SDS011;50717;53.360;6.290;2023-04-15T06:22:36;28.02;;;16.67;;
64395;SDS011;50717;53.360;6.290;2023-04-15T06:25:05;29.27;;;16.98;;
64395;SDS011;50717;53.360;6.290;2023-04-15T06:27:33;26.90;;;15.80;;
64395;SDS011;50717;53.360;6.290;2023-04-15T06:29:58;26.70;;;15.23;;
64395;SDS011;50717;53.360;6.290;2023-04-15T06:32:24;22.00;;;14.27;;
64395;SDS011;50717;53.360;6.290;2023-04-15T06:34:50;21.50;;;14.13;;
64395;SDS011;50717;53.360;6.290;2023-04-15T06:37:16;22.30;;;14.30;;
64395;SDS011;50717;53.360;6.290;2023-04-15T06:39:41;25.70;;;14.02;;
64395;SDS011;50717;53.360;6.290;2023-04-15T06:42:08;24.08;;;14.07;;
64395;SDS011;50717;53.360;6.290;2023-04-15T06:44:35;22.83;;;14.55;;
64395;SDS011;50717;53.360;6.290;2023-04-15T06:47:01;22.25;;;12.75;;
64395;SDS011;50717;53.360;6.290;2023-04-15T06:49:27;21.15;;;12.73;;
64395;SDS011;50717;53.360;6.290;2023-04-15T06:51:52;21.90;;;12.82;;
64395;SDS011;50717;53.360;6.290;2023-04-15T06:54:18;18.73;;;12.25;;
64395;SDS011;50717;53.360;6.290;2023-04-15T06:56:44;19.02;;;11.98;;
64395;SDS011;50717;53.360;6.290;2023-04-15T06:59:10;19.73;;;11.82;;
64395;SDS011;50717;53.360;6.290;2023-04-15T07:01:36;17.55;;;10.88;;
64395;SDS011;50717;53.360;6.290;2023-04-15T07:04:02;16.08;;;9.82;;
64395;SDS011;50717;53.360;6.290;2023-04-15T07:06:28;20.25;;;11.13;;
64395;SDS011;50717;53.360;6.290;2023-04-15T07:08:53;16.00;;;9.75;;
64395;SDS011;50717;53.360;6.290;2023-04-15T07:11:19;16.70;;;9.60;;
64395;SDS011;50717;53.360;6.290;2023-04-15T07:13:45;15.65;;;9.07;;
64395;SDS011;50717;53.360;6.290;2023-04-15T07:16:11;15.77;;;9.65;;
64395;SDS011;50717;53.360;6.290;2023-04-15T07:18:37;12.82;;;8.05;;
64395;SDS011;50717;53.360;6.290;2023-04-15T07:21:03;14.73;;;7.32;;
64395;SDS011;50717;53.360;6.290;2023-04-15T07:25:54;12.40;;;7.63;;
64395;SDS011;50717;53.360;6.290;2023-04-15T07:28:21;12.25;;;7.65;;
64395;SDS011;50717;53.360;6.290;2023-04-15T07:30:46;12.98;;;7.90;;
64395;SDS011;50717;53.360;6.290;2023-04-15T07:35:38;9.00;;;6.35;;
64395;SDS011;50717;53.360;6.290;2023-04-15T07:38:04;12.60;;;6.55;;
64395;SDS011;50717;53.360;6.290;2023-04-15T07:40:29;14.98;;;7.28;;
64395;SDS011;50717;53.360;6.290;2023-04-15T07:42:55;12.43;;;7.05;;
64395;SDS011;50717;53.360;6.290;2023-04-15T07:45:22;11.27;;;7.00;;
64395;SDS011;50717;53.360;6.290;2023-04-15T07:47:48;13.95;;;6.85;;
64395;SDS011;50717;53.360;6.290;2023-04-15T07:50:15;9.18;;;6.25;;
64395;SDS011;50717;53.360;6.290;2023-04-15T07:55:07;8.45;;;5.28;;
64395;SDS011;50717;53.360;6.290;2023-04-15T07:57:35;11.07;;;6.57;;
64395;SDS011;50717;53.360;6.290;2023-04-15T08:02:29;12.00;;;5.90;;
64395;SDS011;50717;53.360;6.290;2023-04-15T08:04:55;7.65;;;5.72;;
64395;SDS011;50717;53.360;6.290;2023-04-15T08:09:47;7.82;;;6.00;;
64395;SDS011;50717;53.360;6.290;2023-04-15T08:12:13;9.60;;;5.70;;
64395;SDS011;50717;53.360;6.290;2023-04-15T08:14:39;8.55;;;5.95;;
64395;SDS011;50717;53.360;6.290;2023-04-15T08:17:04;10.23;;;5.57;;
64395;SDS011;50717;53.360;6.290;2023-04-15T08:19:31;15.60;;;6.43;;
64395;SDS011;50717;53.360;6.290;2023-04-15T08:21:57;8.88;;;5.53;;
64395;SDS011;50717;53.360;6.290;2023-04-15T08:24:23;10.75;;;5.72;;
64395;SDS011;50717;53.360;6.290;2023-04-15T08:26:50;12.48;;;5.57;;
64395;SDS011;50717;53.360;6.290;2023-04-15T08:31:42;10.20;;;5.00;;
64395;SDS011;50717;53.360;6.290;2023-04-15T08:34:10;14.68;;;5.63;;
64395;SDS011;50717;53.360;6.290;2023-04-15T08:36:36;8.05;;;5.45;;
64395;SDS011;50717;53.360;6.290;2023-04-15T08:39:02;9.82;;;4.95;;
64395;SDS011;50717;53.360;6.290;2023-04-15T08:41:34;7.88;;;4.30;;
64395;SDS011;50717;53.360;6.290;2023-04-15T08:46:31;6.78;;;4.78;;
64395;SDS011;50717;53.360;6.290;2023-04-15T08:48:58;7.18;;;4.13;;
64395;SDS011;50717;53.360;6.290;2023-04-15T08:51:27;8.23;;;4.60;;
64395;SDS011;50717;53.360;6.290;2023-04-15T08:53:53;10.10;;;4.22;;
64395;SDS011;50717;53.360;6.290;2023-04-15T08:56:20;8.02;;;4.30;;
64395;SDS011;50717;53.360;6.290;2023-04-15T08:58:53;8.20;;;3.47;;
64395;SDS011;50717;53.360;6.290;2023-04-15T09:01:19;7.90;;;3.83;;
64395;SDS011;50717;53.360;6.290;2023-04-15T09:03:47;6.45;;;3.20;;
64395;SDS011;50717;53.360;6.290;2023-04-15T09:06:15;5.97;;;2.50;;
64395;SDS011;50717;53.360;6.290;2023-04-15T09:08:41;8.55;;;2.97;;
64395;SDS011;50717;53.360;6.290;2023-04-15T09:11:07;4.78;;;2.33;;
64395;SDS011;50717;53.360;6.290;2023-04-15T09:13:33;2.53;;;2.10;;
64395;SDS011;50717;53.360;6.290;2023-04-15T09:16:02;3.03;;;1.85;;
64395;SDS011;50717;53.360;6.290;2023-04-15T09:18:31;4.85;;;1.98;;
64395;SDS011;50717;53.360;6.290;2023-04-15T09:23:33;4.22;;;2.30;;
64395;SDS011;50717;53.360;6.290;2023-04-15T09:26:03;9.00;;;2.58;;
64395;SDS011;50717;53.360;6.290;2023-04-15T09:28:30;4.22;;;2.33;;
64395;SDS011;50717;53.360;6.290;2023-04-15T09:30:56;4.55;;;2.15;;
64395;SDS011;50717;53.360;6.290;2023-04-15T09:33:23;4.15;;;2.40;;
64395;SDS011;50717;53.360;6.290;2023-04-15T09:35:57;8.07;;;2.63;;
64395;SDS011;50717;53.360;6.290;2023-04-15T09:38:25;5.03;;;2.30;;
64395;SDS011;50717;53.360;6.290;2023-04-15T09:43:17;5.75;;;2.15;;
64395;SDS011;50717;53.360;6.290;2023-04-15T09:45:49;3.38;;;2.17;;
64395;SDS011;50717;53.360;6.290;2023-04-15T09:50:45;4.03;;;1.90;;
64395;SDS011;50717;53.360;6.290;2023-04-15T09:53:19;3.47;;;2.35;;
64395;SDS011;50717;53.360;6.290;2023-04-15T09:55:49;2.83;;;1.77;;
64395;SDS011;50717;53.360;6.290;2023-04-15T09:58:17;5.07;;;2.05;;
64395;SDS011;50717;53.360;6.290;2023-04-15T10:00:44;4.10;;;2.00;;
64395;SDS011;50717;53.360;6.290;2023-04-15T10:03:13;2.70;;;1.90;;
64395;SDS011;50717;53.360;6.290;2023-04-15T10:05:42;4.05;;;2.08;;
64395;SDS011;50717;53.360;6.290;2023-04-15T10:08:09;3.97;;;2.00;;
64395;SDS011;50717;53.360;6.290;2023-04-15T10:10:35;8.57;;;2.38;;
64395;SDS011;50717;53.360;6.290;2023-04-15T10:13:01;4.75;;;2.47;;
64395;SDS011;50717;53.360;6.290;2023-04-15T10:15:27;3.58;;;2.13;;
64395;SDS011;50717;53.360;6.290;2023-04-15T10:17:53;4.50;;;2.45;;
64395;SDS011;50717;53.360;6.290;2023-04-15T10:20:21;4.43;;;2.67;;
64395;SDS011;50717;53.360;6.290;2023-04-15T10:22:47;6.97;;;2.60;;
64395;SDS011;50717;53.360;6.290;2023-04-15T10:25:13;6.55;;;2.50;;
64395;SDS011;50717;53.360;6.290;2023-04-15T10:27:40;4.57;;;2.20;;
64395;SDS011;50717;53.360;6.290;2023-04-15T10:30:06;7.50;;;2.67;;
64395;SDS011;50717;53.360;6.290;2023-04-15T10:32:33;7.28;;;2.40;;
64395;SDS011;50717;53.360;6.290;2023-04-15T10:35:00;8.55;;;2.47;;
64395;SDS011;50717;53.360;6.290;2023-04-15T10:40:00;8.05;;;2.72;;
64395;SDS011;50717;53.360;6.290;2023-04-15T10:42:32;9.38;;;2.90;;
64395;SDS011;50717;53.360;6.290;2023-04-15T10:44:59;7.20;;;3.15;;
64395;SDS011;50717;53.360;6.290;2023-04-15T10:47:24;8.80;;;2.90;;
64395;SDS011;50717;53.360;6.290;2023-04-15T10:49:51;9.30;;;2.97;;
64395;SDS011;50717;53.360;6.290;2023-04-15T10:52:25;6.20;;;2.28;;
64395;SDS011;50717;53.360;6.290;2023-04-15T10:55:02;8.52;;;2.50;;
64395;SDS011;50717;53.360;6.290;2023-04-15T10:57:39;12.43;;;3.58;;
64395;SDS011;50717;53.360;6.290;2023-04-15T11:00:12;8.00;;;2.55;;
64395;SDS011;50717;53.360;6.290;2023-04-15T11:05:08;8.68;;;2.72;;
64395;SDS011;50717;53.360;6.290;2023-04-15T11:07:38;11.30;;;2.80;;
64395;SDS011;50717;53.360;6.290;2023-04-15T11:12:36;8.60;;;2.72;;
64395;SDS011;50717;53.360;6.290;2023-04-15T11:17:55;7.57;;;2.63;;
64395;SDS011;50717;53.360;6.290;2023-04-15T11:20:21;13.93;;;3.10;;
64395;SDS011;50717;53.360;6.290;2023-04-15T11:22:47;12.38;;;2.50;;
64395;SDS011;50717;53.360;6.290;2023-04-15T11:25:29;10.10;;;2.10;;
64395;SDS011;50717;53.360;6.290;2023-04-15T11:27:57;14.25;;;2.40;;
64395;SDS011;50717;53.360;6.290;2023-04-15T11:30:25;8.50;;;2.38;;
64395;SDS011;50717;53.360;6.290;2023-04-15T11:32:59;10.52;;;2.63;;
64395;SDS011;50717;53.360;6.290;2023-04-15T11:35:27;11.52;;;2.63;;
64395;SDS011;50717;53.360;6.290;2023-04-15T11:37:53;15.10;;;2.90;;
64395;SDS011;50717;53.360;6.290;2023-04-15T11:40:23;13.27;;;2.75;;
64395;SDS011;50717;53.360;6.290;2023-04-15T11:45:35;11.65;;;2.50;;
64395;SDS011;50717;53.360;6.290;2023-04-15T11:50:35;7.82;;;1.98;;
64395;SDS011;50717;53.360;6.290;2023-04-15T11:53:04;12.65;;;2.13;;
64395;SDS011;50717;53.360;6.290;2023-04-15T11:55:39;9.98;;;2.03;;
64395;SDS011;50717;53.360;6.290;2023-04-15T11:58:23;5.72;;;2.13;;
64395;SDS011;50717;53.360;6.290;2023-04-15T12:00:51;11.82;;;2.58;;
64395;SDS011;50717;53.360;6.290;2023-04-15T12:03:21;8.68;;;1.92;;
64395;SDS011;50717;53.360;6.290;2023-04-15T12:06:33;7.20;;;1.92;;
64395;SDS011;50717;53.360;6.290;2023-04-15T12:11:13;9.98;;;2.15;;
64395;SDS011;50717;53.360;6.290;2023-04-15T12:13:43;11.35;;;2.60;;
64395;SDS011;50717;53.360;6.290;2023-04-15T12:16:09;9.98;;;2.35;;
64395;SDS011;50717;53.360;6.290;2023-04-15T12:18:38;10.38;;;1.98;;
64395;SDS011;50717;53.360;6.290;2023-04-15T12:21:12;10.73;;;2.08;;
64395;SDS011;50717;53.360;6.290;2023-04-15T12:23:48;10.15;;;2.40;;
64395;SDS011;50717;53.360;6.290;2023-04-15T12:26:15;9.85;;;2.33;;
64395;SDS011;50717;53.360;6.290;2023-04-15T12:28:42;13.07;;;2.47;;
64395;SDS011;50717;53.360;6.290;2023-04-15T12:31:08;6.85;;;1.90;;
64395;SDS011;50717;53.360;6.290;2023-04-15T12:33:35;7.60;;;1.90;;
64395;SDS011;50717;53.360;6.290;2023-04-15T12:38:28;14.43;;;2.58;;
64395;SDS011;50717;53.360;6.290;2023-04-15T12:40:54;14.70;;;2.58;;
64395;SDS011;50717;53.360;6.290;2023-04-15T12:43:19;13.70;;;2.22;;
64395;SDS011;50717;53.360;6.290;2023-04-15T12:45:45;20.80;;;3.00;;
64395;SDS011;50717;53.360;6.290;2023-04-15T12:48:11;19.88;;;3.10;;
64395;SDS011;50717;53.360;6.290;2023-04-15T12:50:37;10.73;;;2.88;;
64395;SDS011;50717;53.360;6.290;2023-04-15T12:53:02;10.70;;;2.40;;
64395;SDS011;50717;53.360;6.290;2023-04-15T12:55:28;11.63;;;2.50;;
64395;SDS011;50717;53.360;6.290;2023-04-15T12:57:55;11.95;;;2.50;;
64395;SDS011;50717;53.360;6.290;2023-04-15T13:00:21;13.00;;;2.10;;
64395;SDS011;50717;53.360;6.290;2023-04-15T13:02:47;11.57;;;1.90;;
64395;SDS011;50717;53.360;6.290;2023-04-15T13:05:13;14.13;;;2.70;;
64395;SDS011;50717;53.360;6.290;2023-04-15T13:07:40;10.57;;;2.10;;
64395;SDS011;50717;53.360;6.290;2023-04-15T13:10:06;12.18;;;2.50;;
64395;SDS011;50717;53.360;6.290;2023-04-15T13:12:32;16.60;;;2.83;;
64395;SDS011;50717;53.360;6.290;2023-04-15T13:15:01;12.43;;;2.60;;
64395;SDS011;50717;53.360;6.290;2023-04-15T13:17:29;17.45;;;3.33;;
64395;SDS011;50717;53.360;6.290;2023-04-15T13:19:55;23.65;;;3.33;;
64395;SDS011;50717;53.360;6.290;2023-04-15T13:22:21;12.27;;;2.13;;
64395;SDS011;50717;53.360;6.290;2023-04-15T13:24:47;14.55;;;2.55;;
64395;SDS011;50717;53.360;6.290;2023-04-15T13:27:13;10.68;;;2.30;;
64395;SDS011;50717;53.360;6.290;2023-04-15T13:29:39;9.15;;;1.95;;
64395;SDS011;50717;53.360;6.290;2023-04-15T13:32:05;12.65;;;2.60;;
64395;SDS011;50717;53.360;6.290;2023-04-15T13:34:31;12.93;;;2.42;;
64395;SDS011;50717;53.360;6.290;2023-04-15T13:36:57;9.80;;;2.22;;
64395;SDS011;50717;53.360;6.290;2023-04-15T13:39:22;12.88;;;2.28;;
64395;SDS011;50717;53.360;6.290;2023-04-15T13:41:48;10.68;;;1.80;;
64395;SDS011;50717;53.360;6.290;2023-04-15T13:44:14;13.23;;;2.00;;
64395;SDS011;50717;53.360;6.290;2023-04-15T13:46:40;9.98;;;1.98;;
64395;SDS011;50717;53.360;6.290;2023-04-15T13:49:06;11.68;;;2.70;;
64395;SDS011;50717;53.360;6.290;2023-04-15T13:51:32;12.30;;;2.53;;
64395;SDS011;50717;53.360;6.290;2023-04-15T13:54:00;12.75;;;3.45;;
64395;SDS011;50717;53.360;6.290;2023-04-15T13:56:26;10.73;;;2.40;;
64395;SDS011;50717;53.360;6.290;2023-04-15T13:58:53;13.15;;;2.70;;
64395;SDS011;50717;53.360;6.290;2023-04-15T14:01:23;15.25;;;2.30;;
64395;SDS011;50717;53.360;6.290;2023-04-15T14:03:49;15.25;;;2.70;;
64395;SDS011;50717;53.360;6.290;2023-04-15T14:06:15;13.80;;;2.50;;
64395;SDS011;50717;53.360;6.290;2023-04-15T14:08:41;13.02;;;2.67;;
64395;SDS011;50717;53.360;6.290;2023-04-15T14:11:07;14.10;;;2.85;;
64395;SDS011;50717;53.360;6.290;2023-04-15T14:13:32;10.75;;;2.30;;
64395;SDS011;50717;53.360;6.290;2023-04-15T14:15:58;19.63;;;3.05;;
64395;SDS011;50717;53.360;6.290;2023-04-15T14:18:24;10.55;;;2.30;;
64395;SDS011;50717;53.360;6.290;2023-04-15T14:20:50;16.10;;;2.70;;
64395;SDS011;50717;53.360;6.290;2023-04-15T14:23:15;12.68;;;2.50;;
64395;SDS011;50717;53.360;6.290;2023-04-15T14:25:41;14.98;;;2.60;;
64395;SDS011;50717;53.360;6.290;2023-04-15T14:28:07;11.82;;;2.42;;
64395;SDS011;50717;53.360;6.290;2023-04-15T14:30:33;21.45;;;2.88;;
64395;SDS011;50717;53.360;6.290;2023-04-15T14:32:58;19.27;;;2.85;;
64395;SDS011;50717;53.360;6.290;2023-04-15T14:35:24;18.42;;;3.00;;
64395;SDS011;50717;53.360;6.290;2023-04-15T14:40:17;22.88;;;3.40;;
64395;SDS011;50717;53.360;6.290;2023-04-15T14:45:09;19.42;;;3.92;;
64395;SDS011;50717;53.360;6.290;2023-04-15T14:47:35;23.92;;;4.05;;
64395;SDS011;50717;53.360;6.290;2023-04-15T14:50:00;19.05;;;3.30;;
64395;SDS011;50717;53.360;6.290;2023-04-15T14:52:26;21.08;;;3.70;;
64395;SDS011;50717;53.360;6.290;2023-04-15T14:54:52;21.42;;;4.07;;
64395;SDS011;50717;53.360;6.290;2023-04-15T14:57:17;23.55;;;4.53;;
64395;SDS011;50717;53.360;6.290;2023-04-15T14:59:43;24.73;;;3.63;;
64395;SDS011;50717;53.360;6.290;2023-04-15T15:02:09;12.32;;;3.20;;
64395;SDS011;50717;53.360;6.290;2023-04-15T15:04:34;20.05;;;2.88;;
64395;SDS011;50717;53.360;6.290;2023-04-15T15:07:00;23.40;;;3.03;;
64395;SDS011;50717;53.360;6.290;2023-04-15T15:09:26;18.17;;;3.28;;
64395;SDS011;50717;53.360;6.290;2023-04-15T15:11:53;21.40;;;3.70;;
64395;SDS011;50717;53.360;6.290;2023-04-15T15:14:18;17.52;;;3.10;;
64395;SDS011;50717;53.360;6.290;2023-04-15T15:16:44;18.60;;;2.80;;
64395;SDS011;50717;53.360;6.290;2023-04-15T15:19:10;19.55;;;3.30;;
64395;SDS011;50717;53.360;6.290;2023-04-15T15:21:35;15.82;;;2.78;;
64395;SDS011;50717;53.360;6.290;2023-04-15T15:24:01;25.35;;;5.40;;
64395;SDS011;50717;53.360;6.290;2023-04-15T15:26:27;18.80;;;3.35;;
64395;SDS011;50717;53.360;6.290;2023-04-15T15:28:52;16.42;;;3.38;;
64395;SDS011;50717;53.360;6.290;2023-04-15T15:31:18;17.33;;;2.85;;
64395;SDS011;50717;53.360;6.290;2023-04-15T15:33:44;29.05;;;3.80;;
64395;SDS011;50717;53.360;6.290;2023-04-15T15:36:10;19.48;;;3.63;;
64395;SDS011;50717;53.360;6.290;2023-04-15T15:38:36;15.80;;;2.92;;
64395;SDS011;50717;53.360;6.290;2023-04-15T15:41:01;23.45;;;4.18;;